sensor_id;sensor_type;location;lat;lon;timestamp;P1;durP1;ratioP1;P2;durP2;ratioP2
22768;SDS011;13001;51.968;5.918;2023-02-01T00:01:40;229.70;;;212.37;;
22768;SDS011;13001;51.968;5.918;2023-02-01T00:04:08;241.03;;;222.67;;
22768;SDS011;13001;51.968;5.918;2023-02-01T00:06:35;234.77;;;217.07;;
22768;SDS011;13001;51.968;5.918;2023-02-01T00:09:02;194.73;;;180.97;;
22768;SDS011;13001;51.968;5.918;2023-02-01T00:11:29;257.07;;;238.03;;
22768;SDS011;13001;51.968;5.918;2023-02-01T00:13:57;221.90;;;205.63;;
22768;SDS011;13001;51.968;5.918;2023-02-01T00:16:29;225.97;;;210.33;;
22768;SDS011;13001;51.968;5.918;2023-02-01T00:19:04;196.20;;;182.63;;
22768;SDS011;13001;51.968;5.918;2023-02-01T00:21:22;156.93;;;145.97;;
22768;SDS011;13001;51.968;5.918;2023-02-01T00:23:49;182.47;;;170.20;;
22768;SDS011;13001;51.968;5.918;2023-02-01T00:26:17;174.33;;;162.87;;
22768;SDS011;13001;51.968;5.918;2023-02-01T00:28:45;164.33;;;153.50;;
22768;SDS011;13001;51.968;5.918;2023-02-01T00:31:12;173.20;;;161.47;;
22768;SDS011;13001;51.968;5.918;2023-02-01T00:33:41;162.23;;;151.30;;
22768;SDS011;13001;51.968;5.918;2023-02-01T00:36:08;168.43;;;157.53;;
22768;SDS011;13001;51.968;5.918;2023-02-01T00:38:36;144.20;;;134.00;;
22768;SDS011;13001;51.968;5.918;2023-02-01T00:41:05;146.40;;;136.27;;
22768;SDS011;13001;51.968;5.918;2023-02-01T00:43:33;160.63;;;149.93;;
22768;SDS011;13001;51.968;5.918;2023-02-01T00:46:01;168.13;;;157.03;;
22768;SDS011;13001;51.968;5.918;2023-02-01T00:48:28;142.53;;;132.73;;
22768;SDS011;13001;51.968;5.918;2023-02-01T00:51:03;166.97;;;154.67;;
22768;SDS011;13001;51.968;5.918;2023-02-01T00:53:30;160.07;;;149.67;;
22768;SDS011;13001;51.968;5.918;2023-02-01T00:55:58;183.77;;;171.13;;
22768;SDS011;13001;51.968;5.918;2023-02-01T00:58:26;155.20;;;143.70;;
22768;SDS011;13001;51.968;5.918;2023-02-01T01:01:27;158.67;;;148.10;;
22768;SDS011;13001;51.968;5.918;2023-02-01T01:03:30;159.97;;;149.27;;
22768;SDS011;13001;51.968;5.918;2023-02-01T01:05:59;168.10;;;156.40;;
22768;SDS011;13001;51.968;5.918;2023-02-01T01:08:27;164.40;;;152.73;;
22768;SDS011;13001;51.968;5.918;2023-02-01T01:10:55;152.87;;;142.70;;
22768;SDS011;13001;51.968;5.918;2023-02-01T01:13:22;164.83;;;153.50;;
22768;SDS011;13001;51.968;5.918;2023-02-01T01:15:49;149.33;;;138.93;;
22768;SDS011;13001;51.968;5.918;2023-02-01T01:18:17;153.93;;;142.97;;
22768;SDS011;13001;51.968;5.918;2023-02-01T01:20:44;173.77;;;162.23;;
22768;SDS011;13001;51.968;5.918;2023-02-01T01:23:11;143.80;;;134.17;;
22768;SDS011;13001;51.968;5.918;2023-02-01T01:25:39;164.57;;;153.40;;
22768;SDS011;13001;51.968;5.918;2023-02-01T01:28:06;161.87;;;150.53;;
22768;SDS011;13001;51.968;5.918;2023-02-01T01:30:34;160.27;;;149.27;;
22768;SDS011;13001;51.968;5.918;2023-02-01T01:33:02;187.00;;;174.53;;
22768;SDS011;13001;51.968;5.918;2023-02-01T01:35:30;146.23;;;136.53;;
22768;SDS011;13001;51.968;5.918;2023-02-01T01:37:59;186.03;;;172.90;;
22768;SDS011;13001;51.968;5.918;2023-02-01T01:40:26;185.37;;;172.13;;
22768;SDS011;13001;51.968;5.918;2023-02-01T01:42:54;167.53;;;156.37;;
22768;SDS011;13001;51.968;5.918;2023-02-01T01:47:52;204.43;;;190.07;;
22768;SDS011;13001;51.968;5.918;2023-02-01T01:53:07;210.67;;;196.17;;
22768;SDS011;13001;51.968;5.918;2023-02-01T01:55:36;172.17;;;160.13;;
22768;SDS011;13001;51.968;5.918;2023-02-01T01:58:05;208.30;;;194.27;;
22768;SDS011;13001;51.968;5.918;2023-02-01T02:00:33;211.47;;;196.77;;
22768;SDS011;13001;51.968;5.918;2023-02-01T02:03:03;170.20;;;158.13;;
22768;SDS011;13001;51.968;5.918;2023-02-01T02:05:29;205.73;;;191.47;;
22768;SDS011;13001;51.968;5.918;2023-02-01T02:07:58;203.90;;;190.10;;
22768;SDS011;13001;51.968;5.918;2023-02-01T02:10:27;218.23;;;203.00;;
22768;SDS011;13001;51.968;5.918;2023-02-01T02:13:13;182.80;;;170.40;;
22768;SDS011;13001;51.968;5.918;2023-02-01T02:15:42;203.03;;;188.97;;
22768;SDS011;13001;51.968;5.918;2023-02-01T02:18:12;217.00;;;202.10;;
22768;SDS011;13001;51.968;5.918;2023-02-01T02:23:14;211.37;;;196.90;;
22768;SDS011;13001;51.968;5.918;2023-02-01T02:28:30;217.43;;;202.27;;
22768;SDS011;13001;51.968;5.918;2023-02-01T02:31:04;216.23;;;201.20;;
22768;SDS011;13001;51.968;5.918;2023-02-01T02:33:35;217.40;;;202.50;;
22768;SDS011;13001;51.968;5.918;2023-02-01T02:35:59;218.23;;;202.67;;
22768;SDS011;13001;51.968;5.918;2023-02-01T02:38:29;190.90;;;177.87;;
22768;SDS011;13001;51.968;5.918;2023-02-01T02:41:01;176.00;;;163.27;;
22768;SDS011;13001;51.968;5.918;2023-02-01T02:43:32;207.50;;;193.60;;
22768;SDS011;13001;51.968;5.918;2023-02-01T02:49:10;217.50;;;202.37;;
22768;SDS011;13001;51.968;5.918;2023-02-01T02:51:41;183.23;;;171.23;;
22768;SDS011;13001;51.968;5.918;2023-02-01T02:54:32;188.53;;;175.03;;
22768;SDS011;13001;51.968;5.918;2023-02-01T02:57:22;208.70;;;194.20;;
22768;SDS011;13001;51.968;5.918;2023-02-01T03:00:05;181.23;;;169.10;;
22768;SDS011;13001;51.968;5.918;2023-02-01T03:02:51;162.70;;;151.17;;
22768;SDS011;13001;51.968;5.918;2023-02-01T03:05:39;183.57;;;171.27;;
22768;SDS011;13001;51.968;5.918;2023-02-01T03:08:13;200.57;;;186.53;;
22768;SDS011;13001;51.968;5.918;2023-02-01T03:13:15;201.83;;;187.27;;
22768;SDS011;13001;51.968;5.918;2023-02-01T03:15:43;197.50;;;184.07;;
22768;SDS011;13001;51.968;5.918;2023-02-01T03:18:11;221.00;;;205.87;;
22768;SDS011;13001;51.968;5.918;2023-02-01T03:20:39;204.00;;;189.20;;
22768;SDS011;13001;51.968;5.918;2023-02-01T03:23:07;202.67;;;188.27;;
22768;SDS011;13001;51.968;5.918;2023-02-01T03:25:36;202.00;;;188.20;;
22768;SDS011;13001;51.968;5.918;2023-02-01T03:28:04;207.77;;;194.00;;
22768;SDS011;13001;51.968;5.918;2023-02-01T03:30:39;205.83;;;191.70;;
22768;SDS011;13001;51.968;5.918;2023-02-01T03:33:09;212.57;;;197.53;;
22768;SDS011;13001;51.968;5.918;2023-02-01T03:38:09;225.00;;;209.20;;
22768;SDS011;13001;51.968;5.918;2023-02-01T03:40:36;223.50;;;207.83;;
22768;SDS011;13001;51.968;5.918;2023-02-01T03:43:04;217.17;;;202.07;;
22768;SDS011;13001;51.968;5.918;2023-02-01T03:45:46;213.90;;;198.23;;
22768;SDS011;13001;51.968;5.918;2023-02-01T03:48:14;216.93;;;201.47;;
22768;SDS011;13001;51.968;5.918;2023-02-01T03:50:44;193.67;;;180.17;;
22768;SDS011;13001;51.968;5.918;2023-02-01T03:53:12;232.83;;;216.10;;
22768;SDS011;13001;51.968;5.918;2023-02-01T03:55:41;221.00;;;204.60;;
22768;SDS011;13001;51.968;5.918;2023-02-01T03:58:18;205.30;;;189.70;;
22768;SDS011;13001;51.968;5.918;2023-02-01T04:00:50;220.80;;;204.83;;
22768;SDS011;13001;51.968;5.918;2023-02-01T04:03:14;170.83;;;157.97;;
22768;SDS011;13001;51.968;5.918;2023-02-01T04:05:42;197.93;;;183.53;;
22768;SDS011;13001;51.968;5.918;2023-02-01T04:08:09;197.23;;;183.43;;
22768;SDS011;13001;51.968;5.918;2023-02-01T04:10:36;209.53;;;195.13;;
22768;SDS011;13001;51.968;5.918;2023-02-01T04:13:03;172.40;;;160.10;;
22768;SDS011;13001;51.968;5.918;2023-02-01T04:15:31;216.83;;;200.43;;
22768;SDS011;13001;51.968;5.918;2023-02-01T04:17:58;183.93;;;170.83;;
22768;SDS011;13001;51.968;5.918;2023-02-01T04:20:25;212.30;;;196.43;;
22768;SDS011;13001;51.968;5.918;2023-02-01T04:22:52;230.37;;;214.27;;
22768;SDS011;13001;51.968;5.918;2023-02-01T04:25:20;220.77;;;204.27;;
22768;SDS011;13001;51.968;5.918;2023-02-01T04:27:47;230.63;;;213.23;;
22768;SDS011;13001;51.968;5.918;2023-02-01T04:30:14;227.33;;;210.60;;
22768;SDS011;13001;51.968;5.918;2023-02-01T04:32:44;192.33;;;178.20;;
22768;SDS011;13001;51.968;5.918;2023-02-01T04:35:11;221.33;;;204.97;;
22768;SDS011;13001;51.968;5.918;2023-02-01T04:37:38;232.97;;;214.20;;
22768;SDS011;13001;51.968;5.918;2023-02-01T04:40:05;215.93;;;198.97;;
22768;SDS011;13001;51.968;5.918;2023-02-01T04:42:33;218.60;;;202.00;;
22768;SDS011;13001;51.968;5.918;2023-02-01T04:45:00;183.77;;;169.70;;
22768;SDS011;13001;51.968;5.918;2023-02-01T04:47:27;223.40;;;206.80;;
22768;SDS011;13001;51.968;5.918;2023-02-01T04:49:55;242.53;;;223.03;;
22768;SDS011;13001;51.968;5.918;2023-02-01T04:52:22;203.73;;;188.80;;
22768;SDS011;13001;51.968;5.918;2023-02-01T04:54:49;220.13;;;204.17;;
22768;SDS011;13001;51.968;5.918;2023-02-01T04:57:17;165.13;;;152.33;;
22768;SDS011;13001;51.968;5.918;2023-02-01T04:59:45;185.80;;;171.90;;
22768;SDS011;13001;51.968;5.918;2023-02-01T05:02:12;208.93;;;194.10;;
22768;SDS011;13001;51.968;5.918;2023-02-01T05:04:39;182.83;;;168.60;;
22768;SDS011;13001;51.968;5.918;2023-02-01T05:07:06;160.90;;;149.53;;
22768;SDS011;13001;51.968;5.918;2023-02-01T05:09:34;140.97;;;130.80;;
22768;SDS011;13001;51.968;5.918;2023-02-01T05:12:01;169.47;;;157.10;;
22768;SDS011;13001;51.968;5.918;2023-02-01T05:14:46;157.30;;;146.50;;
22768;SDS011;13001;51.968;5.918;2023-02-01T05:17:14;140.27;;;130.13;;
22768;SDS011;13001;51.968;5.918;2023-02-01T05:19:41;145.83;;;135.47;;
22768;SDS011;13001;51.968;5.918;2023-02-01T05:22:08;153.87;;;143.13;;
22768;SDS011;13001;51.968;5.918;2023-02-01T05:24:35;152.60;;;141.80;;
22768;SDS011;13001;51.968;5.918;2023-02-01T05:27:03;154.07;;;143.93;;
22768;SDS011;13001;51.968;5.918;2023-02-01T05:29:30;148.00;;;138.03;;
22768;SDS011;13001;51.968;5.918;2023-02-01T05:31:57;145.17;;;135.53;;
22768;SDS011;13001;51.968;5.918;2023-02-01T05:34:24;153.90;;;143.33;;
22768;SDS011;13001;51.968;5.918;2023-02-01T05:36:52;124.03;;;115.60;;
22768;SDS011;13001;51.968;5.918;2023-02-01T05:39:21;144.67;;;134.23;;
22768;SDS011;13001;51.968;5.918;2023-02-01T05:41:48;130.97;;;121.90;;
22768;SDS011;13001;51.968;5.918;2023-02-01T05:44:15;155.63;;;144.97;;
22768;SDS011;13001;51.968;5.918;2023-02-01T05:46:42;163.13;;;151.63;;
22768;SDS011;13001;51.968;5.918;2023-02-01T05:49:09;168.47;;;157.03;;
22768;SDS011;13001;51.968;5.918;2023-02-01T05:51:37;122.20;;;113.83;;
22768;SDS011;13001;51.968;5.918;2023-02-01T05:54:04;142.93;;;133.10;;
22768;SDS011;13001;51.968;5.918;2023-02-01T05:56:31;146.63;;;136.70;;
22768;SDS011;13001;51.968;5.918;2023-02-01T05:58:58;157.60;;;146.23;;
22768;SDS011;13001;51.968;5.918;2023-02-01T06:01:26;160.93;;;149.63;;
22768;SDS011;13001;51.968;5.918;2023-02-01T06:03:53;150.60;;;140.00;;
22768;SDS011;13001;51.968;5.918;2023-02-01T06:06:20;129.50;;;120.93;;
22768;SDS011;13001;51.968;5.918;2023-02-01T06:08:47;175.03;;;163.37;;
22768;SDS011;13001;51.968;5.918;2023-02-01T06:11:15;159.47;;;148.83;;
22768;SDS011;13001;51.968;5.918;2023-02-01T06:13:42;157.37;;;146.73;;
22768;SDS011;13001;51.968;5.918;2023-02-01T06:16:09;158.63;;;147.77;;
22768;SDS011;13001;51.968;5.918;2023-02-01T06:18:36;161.40;;;150.80;;
22768;SDS011;13001;51.968;5.918;2023-02-01T06:21:04;164.40;;;153.67;;
22768;SDS011;13001;51.968;5.918;2023-02-01T06:23:31;163.73;;;153.07;;
22768;SDS011;13001;51.968;5.918;2023-02-01T06:25:59;164.53;;;153.63;;
22768;SDS011;13001;51.968;5.918;2023-02-01T06:28:27;156.60;;;146.00;;
22768;SDS011;13001;51.968;5.918;2023-02-01T06:30:55;162.97;;;151.90;;
22768;SDS011;13001;51.968;5.918;2023-02-01T06:33:24;157.27;;;146.10;;
22768;SDS011;13001;51.968;5.918;2023-02-01T06:35:58;151.07;;;140.43;;
22768;SDS011;13001;51.968;5.918;2023-02-01T06:38:25;167.00;;;155.60;;
22768;SDS011;13001;51.968;5.918;2023-02-01T06:40:53;162.33;;;151.07;;
22768;SDS011;13001;51.968;5.918;2023-02-01T06:43:21;163.87;;;152.37;;
22768;SDS011;13001;51.968;5.918;2023-02-01T06:45:49;158.30;;;147.33;;
22768;SDS011;13001;51.968;5.918;2023-02-01T06:48:17;134.23;;;124.07;;
22768;SDS011;13001;51.968;5.918;2023-02-01T06:50:44;171.17;;;159.00;;
22768;SDS011;13001;51.968;5.918;2023-02-01T06:53:12;160.27;;;149.23;;
22768;SDS011;13001;51.968;5.918;2023-02-01T06:55:39;154.03;;;142.83;;
22768;SDS011;13001;51.968;5.918;2023-02-01T06:58:06;178.63;;;165.40;;
22768;SDS011;13001;51.968;5.918;2023-02-01T07:00:33;148.20;;;138.27;;
22768;SDS011;13001;51.968;5.918;2023-02-01T07:03:01;148.17;;;138.10;;
22768;SDS011;13001;51.968;5.918;2023-02-01T07:05:28;140.93;;;131.23;;
22768;SDS011;13001;51.968;5.918;2023-02-01T07:07:55;157.07;;;145.60;;
22768;SDS011;13001;51.968;5.918;2023-02-01T07:10:23;165.43;;;153.63;;
22768;SDS011;13001;51.968;5.918;2023-02-01T07:12:50;168.97;;;157.47;;
22768;SDS011;13001;51.968;5.918;2023-02-01T07:15:17;147.43;;;136.70;;
22768;SDS011;13001;51.968;5.918;2023-02-01T07:17:44;159.93;;;148.53;;
22768;SDS011;13001;51.968;5.918;2023-02-01T07:20:13;169.60;;;158.03;;
22768;SDS011;13001;51.968;5.918;2023-02-01T07:22:40;158.57;;;147.57;;
22768;SDS011;13001;51.968;5.918;2023-02-01T07:25:07;159.57;;;148.60;;
22768;SDS011;13001;51.968;5.918;2023-02-01T07:27:35;146.87;;;136.70;;
22768;SDS011;13001;51.968;5.918;2023-02-01T07:30:07;161.27;;;150.07;;
22768;SDS011;13001;51.968;5.918;2023-02-01T07:32:31;172.30;;;160.13;;
22768;SDS011;13001;51.968;5.918;2023-02-01T07:34:59;142.23;;;132.67;;
22768;SDS011;13001;51.968;5.918;2023-02-01T07:37:26;165.77;;;153.87;;
22768;SDS011;13001;51.968;5.918;2023-02-01T07:39:53;155.33;;;145.03;;
22768;SDS011;13001;51.968;5.918;2023-02-01T07:42:20;148.90;;;138.80;;
22768;SDS011;13001;51.968;5.918;2023-02-01T07:44:47;127.93;;;119.10;;
22768;SDS011;13001;51.968;5.918;2023-02-01T07:47:15;168.57;;;157.00;;
22768;SDS011;13001;51.968;5.918;2023-02-01T07:49:43;163.77;;;152.57;;
22768;SDS011;13001;51.968;5.918;2023-02-01T07:52:11;134.73;;;125.57;;
22768;SDS011;13001;51.968;5.918;2023-02-01T07:54:39;157.23;;;146.00;;
22768;SDS011;13001;51.968;5.918;2023-02-01T07:57:06;165.50;;;153.63;;
22768;SDS011;13001;51.968;5.918;2023-02-01T07:59:35;159.37;;;148.23;;
22768;SDS011;13001;51.968;5.918;2023-02-01T08:02:04;157.03;;;146.30;;
22768;SDS011;13001;51.968;5.918;2023-02-01T08:04:31;171.67;;;159.93;;
22768;SDS011;13001;51.968;5.918;2023-02-01T08:06:58;133.40;;;123.80;;
22768;SDS011;13001;51.968;5.918;2023-02-01T08:09:25;151.23;;;140.83;;
22768;SDS011;13001;51.968;5.918;2023-02-01T08:11:53;157.47;;;146.80;;
22768;SDS011;13001;51.968;5.918;2023-02-01T08:14:20;172.27;;;160.47;;
22768;SDS011;13001;51.968;5.918;2023-02-01T08:16:47;146.93;;;136.63;;
22768;SDS011;13001;51.968;5.918;2023-02-01T08:19:14;135.50;;;125.70;;
22768;SDS011;13001;51.968;5.918;2023-02-01T08:21:42;121.70;;;112.80;;
22768;SDS011;13001;51.968;5.918;2023-02-01T08:24:09;125.33;;;115.97;;
22768;SDS011;13001;51.968;5.918;2023-02-01T08:26:37;109.87;;;102.03;;
22768;SDS011;13001;51.968;5.918;2023-02-01T08:29:04;104.53;;;96.93;;
22768;SDS011;13001;51.968;5.918;2023-02-01T08:31:33;113.00;;;104.73;;
22768;SDS011;13001;51.968;5.918;2023-02-01T08:34:02;109.43;;;100.57;;
22768;SDS011;13001;51.968;5.918;2023-02-01T08:36:34;125.63;;;116.17;;
22768;SDS011;13001;51.968;5.918;2023-02-01T08:39:01;118.03;;;109.43;;
22768;SDS011;13001;51.968;5.918;2023-02-01T08:41:30;114.93;;;107.33;;
22768;SDS011;13001;51.968;5.918;2023-02-01T08:43:57;227.38;;;210.55;;
22768;SDS011;13001;51.968;5.918;2023-02-01T08:46:25;132.00;;;123.30;;
22768;SDS011;13001;51.968;5.918;2023-02-01T08:48:52;183.87;;;171.50;;
22768;SDS011;13001;51.968;5.918;2023-02-01T08:51:20;235.00;;;219.03;;
22768;SDS011;13001;51.968;5.918;2023-02-01T08:53:48;244.40;;;228.63;;
22768;SDS011;13001;51.968;5.918;2023-02-01T08:56:16;225.33;;;210.57;;
22768;SDS011;13001;51.968;5.918;2023-02-01T08:58:44;228.53;;;212.97;;
22768;SDS011;13001;51.968;5.918;2023-02-01T09:01:16;248.83;;;231.50;;
22768;SDS011;13001;51.968;5.918;2023-02-01T09:03:40;158.20;;;147.90;;
22768;SDS011;13001;51.968;5.918;2023-02-01T09:06:09;195.93;;;182.97;;
22768;SDS011;13001;51.968;5.918;2023-02-01T09:08:37;138.73;;;129.53;;
22768;SDS011;13001;51.968;5.918;2023-02-01T09:11:06;133.17;;;124.43;;
22768;SDS011;13001;51.968;5.918;2023-02-01T09:13:34;151.90;;;141.73;;
22768;SDS011;13001;51.968;5.918;2023-02-01T09:16:02;137.70;;;128.37;;
22768;SDS011;13001;51.968;5.918;2023-02-01T09:18:29;142.67;;;133.20;;
22768;SDS011;13001;51.968;5.918;2023-02-01T09:20:57;189.97;;;177.27;;
22768;SDS011;13001;51.968;5.918;2023-02-01T09:23:24;265.53;;;247.47;;
22768;SDS011;13001;51.968;5.918;2023-02-01T09:25:51;235.50;;;218.37;;
22768;SDS011;13001;51.968;5.918;2023-02-01T09:28:18;199.00;;;185.53;;
22768;SDS011;13001;51.968;5.918;2023-02-01T09:30:46;181.27;;;168.50;;
22768;SDS011;13001;51.968;5.918;2023-02-01T09:33:13;139.20;;;129.13;;
22768;SDS011;13001;51.968;5.918;2023-02-01T09:35:40;125.13;;;116.20;;
22768;SDS011;13001;51.968;5.918;2023-02-01T09:38:08;125.63;;;117.10;;
22768;SDS011;13001;51.968;5.918;2023-02-01T09:40:35;152.80;;;142.53;;
22768;SDS011;13001;51.968;5.918;2023-02-01T09:45:44;183.13;;;170.43;;
22768;SDS011;13001;51.968;5.918;2023-02-01T09:48:10;240.87;;;224.00;;
22768;SDS011;13001;51.968;5.918;2023-02-01T09:50:33;146.37;;;135.57;;
22768;SDS011;13001;51.968;5.918;2023-02-01T09:53:02;127.87;;;118.97;;
22768;SDS011;13001;51.968;5.918;2023-02-01T09:55:33;114.03;;;105.33;;
22768;SDS011;13001;51.968;5.918;2023-02-01T09:58:03;103.10;;;95.93;;
22768;SDS011;13001;51.968;5.918;2023-02-01T10:02:57;125.27;;;116.13;;
22768;SDS011;13001;51.968;5.918;2023-02-01T10:08:15;144.87;;;135.20;;
22768;SDS011;13001;51.968;5.918;2023-02-01T10:10:40;168.60;;;157.33;;
22768;SDS011;13001;51.968;5.918;2023-02-01T10:13:12;179.70;;;167.97;;
22768;SDS011;13001;51.968;5.918;2023-02-01T10:18:21;197.80;;;184.73;;
22768;SDS011;13001;51.968;5.918;2023-02-01T10:20:48;189.77;;;176.90;;
22768;SDS011;13001;51.968;5.918;2023-02-01T10:25:55;216.80;;;201.90;;
22768;SDS011;13001;51.968;5.918;2023-02-01T10:28:23;228.73;;;213.40;;
22768;SDS011;13001;51.968;5.918;2023-02-01T10:30:56;232.07;;;216.93;;
22768;SDS011;13001;51.968;5.918;2023-02-01T10:33:25;242.57;;;226.17;;
22768;SDS011;13001;51.968;5.918;2023-02-01T10:35:58;260.53;;;242.73;;
22768;SDS011;13001;51.968;5.918;2023-02-01T10:38:29;248.90;;;232.17;;
22768;SDS011;13001;51.968;5.918;2023-02-01T10:40:52;246.23;;;229.00;;
22768;SDS011;13001;51.968;5.918;2023-02-01T10:43:20;222.67;;;207.50;;
22768;SDS011;13001;51.968;5.918;2023-02-01T10:45:47;204.40;;;190.53;;
22768;SDS011;13001;51.968;5.918;2023-02-01T10:48:14;212.47;;;197.70;;
22768;SDS011;13001;51.968;5.918;2023-02-01T10:51:03;176.93;;;163.67;;
22768;SDS011;13001;51.968;5.918;2023-02-01T10:53:31;169.07;;;157.50;;
22768;SDS011;13001;51.968;5.918;2023-02-01T10:55:57;186.70;;;172.77;;
22768;SDS011;13001;51.968;5.918;2023-02-01T10:58:27;140.80;;;131.30;;
22768;SDS011;13001;51.968;5.918;2023-02-01T11:00:57;159.07;;;147.63;;
22768;SDS011;13001;51.968;5.918;2023-02-01T11:03:37;127.10;;;117.97;;
22768;SDS011;13001;51.968;5.918;2023-02-01T11:06:09;117.53;;;109.40;;
22768;SDS011;13001;51.968;5.918;2023-02-01T11:08:34;104.43;;;97.20;;
22768;SDS011;13001;51.968;5.918;2023-02-01T11:11:03;95.13;;;88.20;;
22768;SDS011;13001;51.968;5.918;2023-02-01T11:13:32;93.67;;;87.07;;
22768;SDS011;13001;51.968;5.918;2023-02-01T11:16:02;88.47;;;82.10;;
22768;SDS011;13001;51.968;5.918;2023-02-01T11:18:36;82.87;;;76.53;;
22768;SDS011;13001;51.968;5.918;2023-02-01T11:20:59;80.70;;;74.77;;
22768;SDS011;13001;51.968;5.918;2023-02-01T11:23:27;82.60;;;76.67;;
22768;SDS011;13001;51.968;5.918;2023-02-01T11:25:57;80.90;;;74.70;;
22768;SDS011;13001;51.968;5.918;2023-02-01T11:28:25;81.90;;;76.10;;
22768;SDS011;13001;51.968;5.918;2023-02-01T11:30:54;86.40;;;79.80;;
22768;SDS011;13001;51.968;5.918;2023-02-01T11:33:26;94.77;;;87.73;;
22768;SDS011;13001;51.968;5.918;2023-02-01T11:35:56;91.10;;;84.17;;
22768;SDS011;13001;51.968;5.918;2023-02-01T11:38:29;82.97;;;76.37;;
22768;SDS011;13001;51.968;5.918;2023-02-01T11:41:30;83.70;;;77.47;;
22768;SDS011;13001;51.968;5.918;2023-02-01T11:43:31;82.10;;;76.07;;
22768;SDS011;13001;51.968;5.918;2023-02-01T11:45:59;95.13;;;88.23;;
22768;SDS011;13001;51.968;5.918;2023-02-01T11:48:32;117.83;;;108.93;;
22768;SDS011;13001;51.968;5.918;2023-02-01T11:51:04;89.80;;;83.13;;
22768;SDS011;13001;51.968;5.918;2023-02-01T11:53:48;90.40;;;84.27;;
22768;SDS011;13001;51.968;5.918;2023-02-01T11:56:11;83.93;;;77.67;;
22768;SDS011;13001;51.968;5.918;2023-02-01T12:06:45;105.53;;;97.57;;
22768;SDS011;13001;51.968;5.918;2023-02-01T12:09:57;110.10;;;102.10;;
22768;SDS011;13001;51.968;5.918;2023-02-01T12:11:48;107.83;;;100.03;;
22768;SDS011;13001;51.968;5.918;2023-02-01T12:15:18;93.90;;;87.17;;
22768;SDS011;13001;51.968;5.918;2023-02-01T12:17:00;105.13;;;97.60;;
22768;SDS011;13001;51.968;5.918;2023-02-01T12:19:33;105.53;;;97.97;;
22768;SDS011;13001;51.968;5.918;2023-02-01T12:22:07;88.53;;;81.97;;
22768;SDS011;13001;51.968;5.918;2023-02-01T12:24:37;89.30;;;83.03;;
22768;SDS011;13001;51.968;5.918;2023-02-01T12:30:02;92.63;;;85.63;;
22768;SDS011;13001;51.968;5.918;2023-02-01T12:32:26;98.30;;;91.13;;
22768;SDS011;13001;51.968;5.918;2023-02-01T12:37:59;106.07;;;98.47;;
22768;SDS011;13001;51.968;5.918;2023-02-01T12:43:20;111.13;;;103.20;;
22768;SDS011;13001;51.968;5.918;2023-02-01T12:45:46;142.80;;;132.33;;
22768;SDS011;13001;51.968;5.918;2023-02-01T12:50:49;125.13;;;116.70;;
22768;SDS011;13001;51.968;5.918;2023-02-01T12:53:27;125.03;;;116.00;;
22768;SDS011;13001;51.968;5.918;2023-02-01T12:55:54;134.40;;;124.97;;
22768;SDS011;13001;51.968;5.918;2023-02-01T12:58:23;159.90;;;148.77;;
22768;SDS011;13001;51.968;5.918;2023-02-01T13:01:01;154.10;;;143.20;;
22768;SDS011;13001;51.968;5.918;2023-02-01T13:06:02;137.50;;;127.37;;
22768;SDS011;13001;51.968;5.918;2023-02-01T13:08:34;146.47;;;136.50;;
22768;SDS011;13001;51.968;5.918;2023-02-01T13:11:09;150.50;;;139.13;;
22768;SDS011;13001;51.968;5.918;2023-02-01T13:13:37;148.07;;;137.23;;
22768;SDS011;13001;51.968;5.918;2023-02-01T13:16:14;140.13;;;130.80;;
22768;SDS011;13001;51.968;5.918;2023-02-01T13:18:41;148.50;;;138.37;;
22768;SDS011;13001;51.968;5.918;2023-02-01T13:21:27;154.27;;;143.50;;
22768;SDS011;13001;51.968;5.918;2023-02-01T13:23:55;155.67;;;144.03;;
22768;SDS011;13001;51.968;5.918;2023-02-01T13:26:22;152.33;;;141.97;;
22768;SDS011;13001;51.968;5.918;2023-02-01T13:29:03;126.30;;;117.67;;
22768;SDS011;13001;51.968;5.918;2023-02-01T13:41:52;144.00;;;134.23;;
22768;SDS011;13001;51.968;5.918;2023-02-01T13:44:24;214.87;;;197.73;;
22768;SDS011;13001;51.968;5.918;2023-02-01T13:46:48;141.30;;;131.43;;
22768;SDS011;13001;51.968;5.918;2023-02-01T13:49:27;138.90;;;128.73;;
22768;SDS011;13001;51.968;5.918;2023-02-01T13:51:46;142.90;;;133.10;;
22768;SDS011;13001;51.968;5.918;2023-02-01T13:54:24;133.83;;;124.07;;
22768;SDS011;13001;51.968;5.918;2023-02-01T13:56:52;158.67;;;147.67;;
22768;SDS011;13001;51.968;5.918;2023-02-01T13:59:36;155.97;;;145.33;;
22768;SDS011;13001;51.968;5.918;2023-02-01T14:04:45;141.50;;;131.70;;
22768;SDS011;13001;51.968;5.918;2023-02-01T14:07:04;137.37;;;127.80;;
22768;SDS011;13001;51.968;5.918;2023-02-01T14:09:33;144.27;;;134.50;;
22768;SDS011;13001;51.968;5.918;2023-02-01T14:14:48;128.93;;;120.03;;
22768;SDS011;13001;51.968;5.918;2023-02-01T14:17:34;116.87;;;108.77;;
22768;SDS011;13001;51.968;5.918;2023-02-01T14:19:47;122.07;;;113.40;;
22768;SDS011;13001;51.968;5.918;2023-02-01T14:24:43;121.90;;;113.27;;
22768;SDS011;13001;51.968;5.918;2023-02-01T14:29:42;153.30;;;142.73;;
22768;SDS011;13001;51.968;5.918;2023-02-01T14:32:19;141.03;;;131.57;;
22768;SDS011;13001;51.968;5.918;2023-02-01T14:42:42;161.63;;;150.77;;
22768;SDS011;13001;51.968;5.918;2023-02-01T14:53:27;136.07;;;126.37;;
22768;SDS011;13001;51.968;5.918;2023-02-01T14:55:44;146.53;;;135.67;;
22768;SDS011;13001;51.968;5.918;2023-02-01T14:58:16;148.20;;;137.80;;
22768;SDS011;13001;51.968;5.918;2023-02-01T15:00:50;146.37;;;136.30;;
22768;SDS011;13001;51.968;5.918;2023-02-01T15:03:21;134.80;;;124.90;;
22768;SDS011;13001;51.968;5.918;2023-02-01T15:05:45;288.23;;;263.47;;
22768;SDS011;13001;51.968;5.918;2023-02-01T15:08:15;120.60;;;111.90;;
22768;SDS011;13001;51.968;5.918;2023-02-01T15:10:43;122.67;;;113.83;;
22768;SDS011;13001;51.968;5.918;2023-02-01T15:13:21;118.80;;;111.03;;
22768;SDS011;13001;51.968;5.918;2023-02-01T15:18:30;126.67;;;118.23;;
22768;SDS011;13001;51.968;5.918;2023-02-01T15:20:58;130.47;;;121.00;;
22768;SDS011;13001;51.968;5.918;2023-02-01T15:23:26;179.33;;;165.30;;
22768;SDS011;13001;51.968;5.918;2023-02-01T15:25:55;128.43;;;118.97;;
22768;SDS011;13001;51.968;5.918;2023-02-01T15:28:23;119.10;;;110.63;;
22768;SDS011;13001;51.968;5.918;2023-02-01T15:30:52;108.50;;;100.73;;
22768;SDS011;13001;51.968;5.918;2023-02-01T15:33:19;102.97;;;95.20;;
22768;SDS011;13001;51.968;5.918;2023-02-01T15:35:48;104.17;;;96.87;;
22768;SDS011;13001;51.968;5.918;2023-02-01T15:38:19;102.60;;;95.73;;
22768;SDS011;13001;51.968;5.918;2023-02-01T15:41:00;103.13;;;95.40;;
22768;SDS011;13001;51.968;5.918;2023-02-01T15:43:28;111.83;;;104.03;;